createdAt,value
2018-02-20T00:00:38.165Z,0.00
2018-02-20T00:01:38.030Z,0.00
2018-02-20T00:02:38.185Z,0.00
2018-02-20T00:03:38.075Z,0.00
2018-02-20T00:04:37.997Z,0.00
2018-02-20T00:05:37.997Z,0.00
2018-02-20T00:06:37.976Z,0.00
2018-02-20T00:07:38.759Z,0.00
2018-02-20T00:08:38.839Z,0.00
2018-02-20T00:09:38.139Z,0.00
2018-02-20T00:10:37.865Z,0.00
2018-02-20T00:11:38.343Z,0.00
2018-02-20T00:12:37.901Z,0.00
2018-02-20T00:13:37.806Z,0.00
2018-02-20T00:14:40.052Z,0.00
2018-02-20T00:15:37.935Z,0.00
2018-02-20T00:16:38.336Z,0.00
2018-02-20T00:17:37.823Z,0.00
2018-02-20T00:18:37.740Z,0.00
2018-02-20T00:19:38.591Z,0.00
2018-02-20T00:20:40.307Z,0.00
2018-02-20T00:21:38.432Z,0.00
2018-02-20T00:22:37.904Z,0.00
2018-02-20T00:23:37.861Z,0.00
2018-02-20T00:24:38.097Z,0.00
2018-02-20T00:25:38.559Z,0.00
2018-02-20T00:26:38.378Z,0.00
2018-02-20T00:27:37.751Z,0.00
2018-02-20T00:28:38.366Z,0.00
2018-02-20T00:29:37.668Z,0.00
2018-02-20T00:30:37.726Z,0.00
2018-02-20T00:31:38.146Z,0.00
2018-02-20T00:32:37.621Z,0.00
2018-02-20T00:33:37.646Z,0.00
2018-02-20T00:34:38.382Z,0.00
2018-02-20T00:35:37.518Z,0.00
2018-02-20T00:36:39.436Z,0.00
2018-02-20T00:37:37.437Z,0.00
2018-02-20T00:38:37.426Z,0.00
2018-02-20T00:39:37.439Z,0.00
2018-02-20T00:40:37.319Z,0.00
2018-02-20T00:41:38.063Z,0.00
2018-02-20T00:42:37.443Z,0.00
2018-02-20T00:43:37.270Z,0.00
2018-02-20T00:44:37.373Z,0.00
2018-02-20T00:45:37.270Z,0.00
2018-02-20T00:46:37.192Z,0.00
2018-02-20T00:47:37.307Z,0.00
2018-02-20T00:48:37.515Z,0.00
2018-02-20T00:49:37.402Z,0.00
2018-02-20T00:50:39.783Z,0.00
2018-02-20T00:52:00.561Z,0.00
2018-02-20T00:52:37.172Z,0.00
2018-02-20T00:53:37.256Z,0.00
2018-02-20T00:54:38.831Z,0.00
2018-02-20T00:55:37.200Z,0.00
2018-02-20T00:56:37.104Z,0.00
2018-02-20T00:57:37.192Z,0.00
2018-02-20T00:58:38.166Z,0.00
2018-02-20T00:59:37.132Z,0.00
2018-02-20T01:00:38.923Z,0.00
2018-02-20T01:01:53.017Z,0.00
2018-02-20T01:02:37.020Z,0.00
2018-02-20T01:03:37.035Z,0.00
2018-02-20T01:04:59.472Z,0.00
2018-02-20T01:05:36.990Z,0.00
2018-02-20T01:06:42.484Z,0.00
2018-02-20T01:07:36.854Z,0.00
2018-02-20T01:08:38.885Z,0.00
2018-02-20T01:09:36.905Z,0.00
2018-02-20T01:10:36.940Z,0.00
2018-02-20T01:11:36.995Z,0.00
2018-02-20T01:12:36.769Z,0.00
2018-02-20T01:13:36.792Z,0.00
2018-02-20T01:14:38.423Z,0.00
2018-02-20T01:15:36.749Z,0.00
2018-02-20T01:16:37.725Z,0.00
2018-02-20T01:17:36.861Z,0.00
2018-02-20T01:18:36.827Z,0.00
2018-02-20T01:19:36.638Z,0.00
2018-02-20T01:20:36.879Z,0.00
2018-02-20T01:21:36.589Z,0.00
2018-02-20T01:22:36.642Z,0.00
2018-02-20T01:23:39.388Z,0.00
2018-02-20T01:24:36.517Z,0.00
2018-02-20T01:25:38.868Z,0.00
2018-02-20T01:26:36.838Z,0.00
2018-02-20T01:27:38.478Z,0.00
2018-02-20T01:28:37.446Z,0.00
2018-02-20T01:29:36.500Z,0.00
2018-02-20T01:30:36.471Z,0.00
2018-02-20T01:31:36.532Z,0.00
2018-02-20T01:32:36.635Z,0.00
2018-02-20T01:33:36.464Z,0.00
2018-02-20T01:34:36.381Z,0.00
2018-02-20T01:35:36.364Z,0.00
2018-02-20T01:36:36.460Z,0.00
2018-02-20T01:37:36.581Z,0.00
2018-02-20T01:38:36.460Z,0.00
2018-02-20T01:39:36.701Z,0.00
2018-02-20T01:40:38.948Z,0.00
2018-02-20T01:41:36.405Z,0.00
2018-02-20T01:42:36.397Z,0.00
2018-02-20T01:43:46.947Z,0.00
2018-02-20T01:44:37.962Z,0.00
2018-02-20T01:45:36.748Z,0.00
2018-02-20T01:46:50.009Z,0.00
2018-02-20T01:47:36.424Z,0.00
2018-02-20T01:48:36.334Z,0.00
2018-02-20T01:49:47.204Z,0.00
2018-02-20T01:50:37.022Z,0.00
2018-02-20T01:51:38.117Z,0.00
2018-02-20T01:52:36.296Z,0.00
2018-02-20T01:53:40.243Z,0.00
2018-02-20T01:54:36.164Z,0.00
2018-02-20T01:55:37.252Z,0.00
2018-02-20T01:56:37.854Z,0.00
2018-02-20T01:57:41.590Z,0.00
2018-02-20T01:58:35.966Z,0.00
2018-02-20T01:59:36.126Z,0.00
2018-02-20T02:00:37.235Z,0.00
2018-02-20T02:01:37.958Z,0.00
2018-02-20T02:02:36.030Z,0.00
2018-02-20T02:03:42.593Z,0.00
2018-02-20T02:04:37.482Z,0.00
2018-02-20T02:05:37.460Z,0.00
2018-02-20T02:06:36.747Z,0.00
2018-02-20T02:07:59.055Z,0.00
2018-02-20T02:08:36.430Z,0.00
2018-02-20T02:09:39.063Z,0.00
2018-02-20T02:10:35.931Z,0.00
2018-02-20T02:11:35.924Z,0.00
2018-02-20T02:12:50.577Z,0.00
2018-02-20T02:13:35.752Z,0.00
2018-02-20T02:14:40.432Z,0.00
2018-02-20T02:15:35.756Z,0.00
2018-02-20T02:16:35.922Z,0.00
2018-02-20T02:17:35.786Z,0.00
2018-02-20T02:18:40.353Z,0.00
2018-02-20T02:19:37.673Z,0.00
2018-02-20T02:20:35.871Z,0.00
2018-02-20T02:21:35.820Z,0.00
2018-02-20T02:22:36.441Z,0.00
2018-02-20T02:23:35.808Z,0.00
2018-02-20T02:24:36.336Z,0.00
2018-02-20T02:25:35.689Z,0.00
2018-02-20T06:01:15.087Z,0.00
2018-02-20T06:01:44.564Z,0.00
2018-02-20T06:02:45.590Z,0.00
2018-02-20T06:03:43.875Z,4.00
2018-02-20T06:04:43.969Z,4.00
2018-02-20T06:05:43.850Z,0.00
2018-02-20T06:06:43.847Z,4.00
2018-02-20T06:07:43.895Z,4.00
2018-02-20T06:08:43.779Z,4.00
2018-02-20T06:09:43.825Z,4.00
2018-02-20T06:10:44.615Z,4.00
2018-02-20T06:11:43.957Z,8.00
2018-02-20T06:12:43.731Z,8.00
2018-02-20T06:13:43.756Z,12.00
2018-02-20T06:14:43.773Z,12.00
2018-02-20T06:15:43.648Z,20.00
2018-02-20T06:16:43.680Z,24.00
2018-02-20T06:17:43.634Z,24.00
2018-02-20T06:18:43.591Z,28.00
2018-02-20T06:19:43.535Z,36.00
2018-02-20T06:20:43.664Z,40.00
2018-02-20T06:21:43.631Z,44.00
2018-02-20T06:22:43.486Z,52.00
2018-02-20T06:23:43.609Z,60.00
2018-02-20T06:24:43.509Z,68.00
2018-02-20T06:25:43.422Z,76.00
2018-02-20T06:26:43.399Z,88.00
2018-02-20T06:27:43.401Z,100.00
2018-02-20T06:28:43.462Z,108.00
2018-02-20T06:29:44.162Z,120.00
2018-02-20T06:30:43.342Z,136.00
2018-02-20T06:31:43.294Z,152.00
2018-02-20T06:32:43.391Z,168.00
2018-02-20T06:33:43.282Z,184.00
2018-02-20T06:34:43.326Z,204.00
2018-02-20T06:35:43.304Z,220.00
2018-02-20T06:36:43.191Z,240.00
2018-02-20T06:37:43.194Z,260.00
2018-02-20T06:38:43.203Z,280.00
2018-02-20T06:39:43.152Z,300.00
2018-02-20T06:40:43.095Z,324.00
2018-02-20T06:41:43.130Z,348.00
2018-02-20T06:42:43.778Z,372.00
2018-02-20T06:43:43.067Z,396.00
2018-02-20T06:44:43.608Z,424.00
2018-02-20T06:45:43.812Z,452.00
2018-02-20T06:46:43.018Z,476.00
2018-02-20T06:47:42.965Z,504.00
2018-02-20T06:48:43.010Z,536.00
2018-02-20T06:49:42.922Z,568.00
2018-02-20T06:50:42.944Z,596.00
2018-02-20T06:51:42.881Z,628.00
2018-02-20T06:52:42.858Z,660.00
2018-02-20T06:53:42.830Z,688.00
2018-02-20T06:54:42.823Z,716.00
2018-02-20T06:55:42.854Z,748.00
2018-02-20T07:10:43.512Z,1172.00
2018-02-20T07:11:18.060Z,1196.00
2018-02-20T07:12:17.084Z,1220.00
2018-02-20T07:13:15.472Z,1240.00
2018-02-20T07:14:15.493Z,1244.00
2018-02-20T07:15:15.589Z,1264.00
2018-02-20T07:16:15.348Z,1272.00
2018-02-20T07:17:15.328Z,1280.00
2018-02-20T07:18:15.316Z,1296.00
2018-02-20T07:19:15.305Z,1316.00
2018-02-20T07:20:16.153Z,1340.00
2018-02-20T07:21:20.712Z,1364.00
2018-02-20T07:22:21.693Z,1392.00
2018-02-20T07:23:16.268Z,1428.00
2018-02-20T07:24:15.409Z,1460.00
2018-02-20T07:25:15.367Z,1480.00
2018-02-20T07:26:15.160Z,1500.00
2018-02-20T07:27:15.133Z,1520.00
2018-02-20T07:28:15.095Z,1548.00
2018-02-20T07:29:15.080Z,1568.00
2018-02-20T07:30:15.742Z,1596.00
2018-02-20T07:31:15.107Z,1624.00
2018-02-20T07:32:15.082Z,1668.00
2018-02-20T07:33:15.029Z,1704.00
2018-02-20T07:34:15.175Z,1720.00
2018-02-20T07:35:14.962Z,1608.00
2018-02-20T07:36:14.971Z,1804.00
2018-02-20T07:37:14.987Z,1840.00
2018-02-20T07:38:14.926Z,1860.00
2018-02-20T07:39:14.899Z,1888.00
2018-02-20T07:40:14.898Z,1912.00
2018-02-20T07:41:14.855Z,1964.00
2018-02-20T07:42:14.843Z,1980.00
2018-02-20T07:43:14.831Z,2016.00
2018-02-20T07:44:14.790Z,2052.00
2018-02-20T07:45:14.797Z,2072.00
2018-02-20T07:46:14.817Z,2092.00
2018-02-20T07:47:14.750Z,2124.00
2018-02-20T07:48:14.733Z,2148.00
2018-02-20T07:49:14.725Z,2168.00
2018-02-20T07:50:14.677Z,2192.00
2018-02-20T07:51:14.661Z,2196.00
2018-02-20T07:52:14.628Z,2212.00
2018-02-20T07:53:14.613Z,2232.00
2018-02-20T07:54:14.630Z,2244.00
2018-02-20T07:55:14.587Z,2244.00
2018-02-20T07:56:15.070Z,2268.00
2018-02-20T07:57:15.086Z,2304.00
2018-02-20T07:58:14.577Z,2332.00
2018-02-20T07:59:14.581Z,2372.00
2018-02-20T08:00:14.685Z,2408.00
2018-02-20T08:01:14.470Z,2396.00
2018-02-20T08:02:14.445Z,2420.00
2018-02-20T08:03:14.444Z,2324.00
2018-02-20T08:04:16.604Z,2436.00
2018-02-20T08:05:14.400Z,2400.00
2018-02-20T08:06:14.610Z,2460.00
2018-02-20T08:07:14.437Z,2440.00
2018-02-20T08:08:14.334Z,2500.00
2018-02-20T08:09:14.309Z,2440.00
2018-02-20T08:10:14.319Z,2536.00
2018-02-20T08:11:14.274Z,2504.00
2018-02-20T08:12:14.335Z,2540.00
2018-02-20T08:13:14.296Z,2580.00
2018-02-20T08:14:14.216Z,2584.00
2018-02-20T08:15:14.331Z,2612.00
2018-02-20T08:16:15.136Z,2624.00
2018-02-20T08:17:14.220Z,2640.00
2018-02-20T08:18:15.070Z,2660.00
2018-02-20T08:19:14.238Z,2676.00
2018-02-20T08:20:14.107Z,2692.00
2018-02-20T08:21:14.120Z,2704.00
2018-02-20T08:22:14.096Z,2720.00
2018-02-20T08:23:14.118Z,2736.00
2018-02-20T08:24:14.579Z,2760.00
2018-02-20T08:25:14.018Z,2748.00
2018-02-20T08:26:14.077Z,2740.00
2018-02-20T08:27:14.006Z,2740.00
2018-02-20T08:28:13.947Z,2756.00
2018-02-20T08:29:14.570Z,2764.00
2018-02-20T08:30:13.909Z,2780.00
2018-02-20T08:31:14.558Z,2804.00
2018-02-20T08:32:13.883Z,2820.00
2018-02-20T08:33:13.851Z,2836.00
2018-02-20T08:34:14.100Z,2844.00
2018-02-20T08:35:13.843Z,2856.00
2018-02-20T08:36:13.858Z,2868.00
2018-02-20T08:37:13.806Z,2876.00
2018-02-20T08:38:13.853Z,2896.00
2018-02-20T08:39:13.886Z,2920.00
2018-02-20T08:40:13.776Z,2936.00
2018-02-20T08:41:13.715Z,2944.00
2018-02-20T08:42:13.701Z,2956.00
2018-02-20T08:43:13.735Z,2968.00
2018-02-20T08:44:13.692Z,2988.00
2018-02-20T08:45:13.637Z,3020.00
2018-02-20T08:46:13.621Z,3060.00
2018-02-20T08:47:13.613Z,3068.00
2018-02-20T08:48:13.608Z,3056.00
2018-02-20T08:49:13.562Z,3032.00
2018-02-20T08:50:13.576Z,3052.00
2018-02-20T08:51:13.550Z,3068.00
2018-02-20T08:52:13.509Z,3084.00
2018-02-20T08:53:13.493Z,3104.00
2018-02-20T08:54:13.476Z,3120.00
2018-02-20T08:55:13.471Z,3136.00
2018-02-20T08:56:13.455Z,3152.00
2018-02-20T08:57:13.413Z,3176.00
2018-02-20T08:58:13.408Z,3200.00
2018-02-20T08:59:13.386Z,3216.00
2018-02-20T09:00:14.057Z,3252.00
2018-02-20T09:01:13.371Z,3264.00
2018-02-20T09:02:13.321Z,3268.00
2018-02-20T09:03:13.311Z,3268.00
2018-02-20T09:04:14.286Z,3284.00
2018-02-20T09:05:13.281Z,3300.00
2018-02-20T09:06:13.278Z,3288.00
2018-02-20T09:07:13.257Z,3312.00
2018-02-20T09:08:13.241Z,3332.00
2018-02-20T09:09:13.207Z,3352.00
2018-02-20T09:10:13.182Z,3388.00
2018-02-20T09:11:14.078Z,3396.00
2018-02-20T09:12:13.136Z,3408.00
2018-02-20T09:13:13.233Z,3436.00
2018-02-20T09:14:14.059Z,3444.00
2018-02-20T09:15:13.081Z,3460.00
2018-02-20T09:16:13.129Z,3488.00
2018-02-20T09:17:13.115Z,3540.00
2018-02-20T09:18:13.055Z,3584.00
2018-02-20T09:19:13.055Z,3560.00
2018-02-20T09:20:13.117Z,3516.00
2018-02-20T09:21:13.094Z,3512.00
2018-02-20T09:22:12.978Z,3512.00
2018-02-20T09:23:13.011Z,3576.00
2018-02-20T09:24:12.940Z,3560.00
2018-02-20T09:25:12.924Z,3572.00
2018-02-20T09:26:12.902Z,3536.00
2018-02-20T09:27:13.052Z,3556.00
2018-02-20T09:28:12.868Z,3652.00
2018-02-20T09:29:13.570Z,3848.00
2018-02-20T09:30:12.866Z,3596.00
2018-02-20T09:31:12.809Z,3608.00
2018-02-20T09:32:14.126Z,3616.00
2018-02-20T09:33:13.555Z,3884.00
2018-02-20T09:34:12.750Z,3960.00
2018-02-20T09:35:12.800Z,4136.00
2018-02-20T09:36:12.731Z,4256.00
2018-02-20T09:37:12.764Z,4220.00
2018-02-20T09:38:12.689Z,4664.00
2018-02-20T09:39:12.662Z,4872.00
2018-02-20T09:40:12.682Z,4756.00
2018-02-20T09:41:12.639Z,4428.00
2018-02-20T09:42:12.635Z,4152.00
2018-02-20T09:43:12.655Z,4040.00
2018-02-20T09:44:12.616Z,4448.00
2018-02-20T09:45:12.570Z,4916.00
2018-02-20T09:46:12.561Z,10028.00
2018-02-20T09:47:12.545Z,18464.00
2018-02-20T09:48:12.580Z,12096.00
2018-02-20T09:49:12.514Z,6120.00
2018-02-20T09:50:12.495Z,6080.00
2018-02-20T09:51:12.472Z,5484.00
2018-02-20T09:52:12.495Z,4764.00
2018-02-20T09:53:12.459Z,4144.00
2018-02-20T09:54:12.435Z,4056.00
2018-02-20T09:55:12.428Z,4056.00
2018-02-20T09:56:12.540Z,4048.00
2018-02-20T09:57:12.489Z,4068.00
2018-02-20T09:58:12.479Z,4044.00
2018-02-20T09:59:12.361Z,4072.00
2018-02-20T10:00:12.321Z,4144.00
2018-02-20T10:01:12.302Z,4188.00
2018-02-20T10:02:12.281Z,4220.00
2018-02-20T10:03:12.279Z,4216.00
2018-02-20T10:04:12.324Z,4204.00
2018-02-20T10:05:12.239Z,4208.00
2018-02-20T10:06:12.210Z,4208.00
2018-02-20T10:07:12.241Z,4196.00
2018-02-20T10:08:12.674Z,4260.00
2018-02-20T10:09:12.211Z,4244.00
2018-02-20T10:10:12.220Z,4232.00
2018-02-20T10:11:12.219Z,4324.00
2018-02-20T10:12:12.171Z,4480.00
2018-02-20T10:13:12.110Z,4420.00
2018-02-20T10:14:19.642Z,4476.00
2018-02-20T10:15:12.067Z,4756.00
2018-02-20T10:16:12.076Z,4820.00
2018-02-20T10:17:12.088Z,4720.00
2018-02-20T10:18:12.131Z,4664.00
2018-02-20T10:19:12.560Z,4732.00
2018-02-20T10:20:11.985Z,4748.00
2018-02-20T10:21:11.985Z,5020.00
2018-02-20T10:22:12.644Z,4988.00
2018-02-20T10:23:12.106Z,4644.00
2018-02-20T10:24:11.960Z,4728.00
2018-02-20T10:25:12.002Z,4964.00
2018-02-20T10:26:11.903Z,5000.00
2018-02-20T10:27:11.864Z,4788.00
2018-02-20T10:28:11.848Z,4912.00
2018-02-20T10:29:11.821Z,5348.00
2018-02-20T10:30:11.851Z,5760.00
2018-02-20T10:31:11.808Z,5848.00
2018-02-20T10:32:11.791Z,5672.00
2018-02-20T10:33:11.773Z,5312.00
2018-02-20T10:34:11.820Z,5240.00
2018-02-20T10:35:11.749Z,5732.00
2018-02-20T10:36:11.719Z,5780.00
2018-02-20T10:37:11.745Z,5892.00
2018-02-20T10:38:11.686Z,5720.00
2018-02-20T10:39:12.672Z,5156.00
2018-02-20T10:40:11.751Z,5644.00
2018-02-20T10:41:11.773Z,5904.00
2018-02-20T10:42:11.683Z,5664.00
2018-02-20T10:43:11.633Z,5556.00
2018-02-20T10:44:11.600Z,6120.00
2018-02-20T10:45:11.602Z,6524.00
2018-02-20T10:46:11.601Z,6788.00
2018-02-20T10:47:11.804Z,7760.00
2018-02-20T10:48:11.639Z,8172.00
2018-02-20T10:49:11.636Z,7268.00
2018-02-20T10:50:11.597Z,6108.00
2018-02-20T10:51:11.490Z,5632.00
2018-02-20T10:52:13.174Z,5676.00
2018-02-20T10:53:12.087Z,5708.00
2018-02-20T10:54:11.490Z,5956.00
2018-02-20T10:55:11.522Z,5912.00
2018-02-20T10:56:11.423Z,5624.00
2018-02-20T10:57:11.413Z,5732.00
2018-02-20T10:58:11.466Z,6472.00
2018-02-20T10:59:11.475Z,9164.00
2018-02-20T11:00:11.513Z,12064.00
2018-02-20T11:01:11.410Z,11940.00
2018-02-20T11:02:12.455Z,14656.00
2018-02-20T11:03:11.499Z,16992.00
2018-02-20T11:04:12.510Z,17632.00
2018-02-20T11:05:11.277Z,20384.00
2018-02-20T11:06:11.277Z,22336.00
2018-02-20T11:07:11.303Z,24224.00
2018-02-20T11:08:11.242Z,24576.00
2018-02-20T11:09:11.232Z,28384.00
2018-02-20T11:10:11.218Z,14848.00
2018-02-20T11:11:11.206Z,6640.00
2018-02-20T11:12:11.362Z,6124.00
2018-02-20T11:13:14.344Z,7148.00
2018-02-20T11:14:11.685Z,7356.00
2018-02-20T11:18:28.402Z,10584.00
2018-02-20T11:19:27.935Z,6640.00
2018-02-20T11:20:27.909Z,7064.00
2018-02-20T11:21:28.011Z,7240.00
2018-02-20T11:22:28.791Z,6688.00
2018-02-20T11:23:28.120Z,6664.00
2018-02-20T11:24:28.022Z,6696.00
2018-02-20T11:25:27.993Z,6832.00
2018-02-20T11:26:28.021Z,6692.00
2018-02-20T11:27:27.911Z,6668.00
2018-02-20T11:28:28.038Z,7208.00
2018-02-20T11:57:54.163Z,11716.00
2018-02-20T11:58:28.786Z,20000.00
2018-02-20T11:59:26.046Z,27232.00
2018-02-20T12:00:26.122Z,30016.00
2018-02-20T12:01:28.268Z,32352.00
2018-02-20T12:02:29.311Z,37152.00
2018-02-20T12:03:27.790Z,35552.00
2018-02-20T12:04:27.534Z,36480.00
2018-02-20T12:05:26.749Z,37952.00
2018-02-20T12:06:27.835Z,38304.00
2018-02-20T12:07:26.237Z,37600.00
2018-02-20T12:08:28.333Z,35296.00
2018-02-20T12:09:29.271Z,35840.00
2018-02-20T12:10:27.796Z,33728.00
2018-02-20T12:11:29.293Z,31104.00
2018-02-20T12:12:26.250Z,30496.00
2018-02-20T12:13:26.203Z,26784.00
2018-02-20T12:14:29.787Z,21280.00
2018-02-20T12:15:26.780Z,22496.00
2018-02-20T12:16:25.944Z,18560.00
2018-02-20T12:17:26.264Z,13136.00
2018-02-20T12:18:26.784Z,11920.00
2018-02-20T12:19:26.779Z,12100.00
2018-02-20T12:20:25.834Z,12644.00
2018-02-20T12:21:25.932Z,13200.00
2018-02-20T12:22:25.839Z,12720.00
2018-02-20T12:23:27.771Z,11976.00
2018-02-20T12:24:26.276Z,11164.00
2018-02-20T12:25:28.279Z,11488.00
2018-02-20T12:26:25.737Z,12516.00
2018-02-20T12:27:27.911Z,8976.00
2018-02-20T12:28:26.391Z,13832.00
2018-02-20T12:29:25.724Z,13000.00
2018-02-20T12:30:25.635Z,12200.00
2018-02-20T12:31:25.764Z,11328.00
2018-02-20T12:32:25.871Z,11620.00
2018-02-20T12:33:26.593Z,11516.00
2018-02-20T12:34:26.553Z,11308.00
2018-02-20T12:35:25.684Z,11972.00
2018-02-20T12:36:25.958Z,13384.00
2018-02-20T13:54:39.015Z,9640.00
2018-02-20T13:55:38.634Z,11836.00
2018-02-20T13:56:38.837Z,11992.00
2018-02-20T13:57:38.577Z,12896.00
2018-02-20T13:58:38.630Z,13088.00
2018-02-20T13:59:38.788Z,13652.00
2018-02-20T14:00:38.722Z,13668.00
2018-02-20T14:01:38.689Z,12204.00
2018-02-20T14:02:38.602Z,11696.00
2018-02-20T14:03:38.686Z,12584.00
2018-02-20T14:04:38.681Z,13172.00
2018-02-20T14:05:38.632Z,15232.00
2018-02-20T14:06:38.575Z,16512.00
2018-02-20T14:07:38.532Z,19168.00
2018-02-20T14:08:38.748Z,22400.00
2018-02-20T14:09:38.605Z,26816.00
2018-02-20T14:10:38.486Z,29824.00
2018-02-20T14:11:38.446Z,27040.00
2018-02-20T14:12:38.488Z,21088.00
2018-02-20T14:13:38.589Z,12148.00
2018-02-20T14:14:38.581Z,13728.00
2018-02-20T14:15:38.431Z,8648.00
2018-02-20T14:16:38.420Z,9084.00
2018-02-20T14:17:38.535Z,8972.00
2018-02-20T14:18:38.279Z,8984.00
2018-02-20T14:19:38.374Z,8712.00
2018-02-20T14:20:38.461Z,8856.00
2018-02-20T14:21:38.544Z,13024.00
2018-02-20T14:22:38.301Z,14816.00
2018-02-20T14:23:38.235Z,16992.00
2018-02-20T14:24:39.943Z,14272.00
2018-02-20T14:25:38.430Z,11520.00
2018-02-20T14:26:38.332Z,16768.00
2018-02-20T14:27:38.973Z,16160.00
2018-02-20T14:28:38.314Z,17088.00
2018-02-20T14:29:38.225Z,17664.00
2018-02-20T14:30:38.267Z,17600.00
2018-02-20T14:31:38.414Z,16832.00
2018-02-20T14:32:38.318Z,17696.00
2018-02-20T14:33:38.324Z,19872.00
2018-02-20T14:34:38.299Z,19264.00
2018-02-20T14:35:38.198Z,16544.00
2018-02-20T14:36:38.243Z,15744.00
2018-02-20T14:37:38.259Z,17152.00
2018-02-20T14:38:38.214Z,19584.00
2018-02-20T14:39:38.139Z,20672.00
2018-02-20T14:40:38.238Z,21440.00
2018-02-20T14:41:38.279Z,20928.00
2018-02-20T14:42:38.344Z,20736.00
2018-02-20T14:43:38.159Z,20320.00
2018-02-20T14:44:38.237Z,20384.00
2018-02-20T14:45:38.166Z,18528.00
2018-02-20T14:46:37.984Z,15552.00
2018-02-20T14:47:38.104Z,12052.00
2018-02-20T14:48:38.122Z,15168.00
2018-02-20T14:49:39.016Z,15584.00
2018-02-20T14:50:42.848Z,14656.00
2018-02-20T14:51:38.008Z,13856.00
2018-02-20T14:52:38.116Z,12352.00
2018-02-20T14:53:38.026Z,11476.00
2018-02-20T14:54:39.164Z,13088.00
2018-02-20T14:55:37.970Z,12128.00
2018-02-20T14:56:37.987Z,11712.00
2018-02-20T14:57:38.060Z,7768.00
2018-02-20T14:58:38.043Z,7932.00
2018-02-20T14:59:37.975Z,10660.00
2018-02-20T15:00:37.993Z,8264.00
2018-02-20T15:01:37.936Z,11244.00
2018-02-20T15:02:38.239Z,10032.00
2018-02-20T15:03:37.920Z,10072.00
2018-02-20T15:04:38.007Z,8072.00
2018-02-20T15:05:38.117Z,7020.00
2018-02-20T15:06:37.901Z,6024.00
2018-02-20T15:07:38.009Z,4912.00
2018-02-20T15:08:37.847Z,5552.00
2018-02-20T15:09:37.976Z,4364.00
2018-02-20T15:10:37.909Z,4324.00
2018-02-20T15:11:37.955Z,4388.00
2018-02-20T15:12:38.060Z,4132.00
2018-02-20T15:13:37.907Z,3884.00
2018-02-20T15:14:37.857Z,3872.00
2018-02-20T15:15:37.874Z,3872.00
2018-02-20T15:16:37.917Z,3576.00
2018-02-20T15:17:37.878Z,3212.00
2018-02-20T15:18:37.860Z,2788.00
2018-02-20T15:19:37.867Z,2656.00
2018-02-20T15:20:37.748Z,2824.00
2018-02-20T15:21:37.865Z,3200.00
2018-02-20T15:22:37.807Z,3384.00
2018-02-20T15:23:37.931Z,3844.00
2018-02-20T15:24:37.777Z,4076.00
2018-02-20T15:25:37.738Z,3876.00
2018-02-20T15:26:37.735Z,3768.00
2018-02-20T15:27:37.678Z,3796.00
2018-02-20T15:28:37.833Z,3900.00
2018-02-20T15:29:37.848Z,4060.00
2018-02-20T15:30:37.719Z,4264.00
2018-02-20T15:31:37.601Z,4452.00
2018-02-20T15:32:37.666Z,4628.00
2018-02-20T15:33:37.684Z,4772.00
2018-02-20T15:34:37.989Z,4888.00
2018-02-20T15:35:37.697Z,6220.00
2018-02-20T15:36:37.722Z,6700.00
2018-02-20T15:37:37.772Z,6664.00
2018-02-20T15:38:37.500Z,6088.00
2018-02-20T15:39:37.504Z,5696.00
2018-02-20T15:40:37.684Z,5524.00
2018-02-20T15:41:37.482Z,5548.00
2018-02-20T15:42:37.551Z,5480.00
2018-02-20T15:43:37.554Z,5488.00
2018-02-20T15:44:37.570Z,5372.00
2018-02-20T15:45:37.454Z,5020.00
2018-02-20T15:46:37.565Z,4788.00
2018-02-20T15:47:37.560Z,4704.00
2018-02-20T15:48:37.358Z,4548.00
2018-02-20T15:49:37.480Z,4216.00
2018-02-20T15:50:37.396Z,4076.00
2018-02-20T15:51:37.702Z,3984.00
2018-02-20T15:52:37.668Z,3868.00
2018-02-20T15:53:37.361Z,3720.00
2018-02-20T15:54:37.694Z,3648.00
2018-02-20T15:55:37.361Z,3696.00
2018-02-20T15:56:37.861Z,3516.00
2018-02-20T15:57:37.400Z,3256.00
2018-02-20T15:58:37.365Z,3076.00
2018-02-20T15:59:38.357Z,2944.00
2018-02-20T16:00:37.777Z,2804.00
2018-02-20T16:01:37.313Z,2688.00
2018-02-20T16:02:37.550Z,2576.00
2018-02-20T16:03:37.225Z,2468.00
2018-02-20T16:04:37.040Z,2328.00
2018-02-20T16:05:37.048Z,2208.00
2018-02-20T16:06:37.012Z,2116.00
2018-02-20T16:07:37.008Z,2008.00
2018-02-20T16:08:36.984Z,1852.00
2018-02-20T16:09:36.968Z,1696.00
2018-02-20T16:10:36.970Z,1572.00
2018-02-20T16:11:36.976Z,1496.00
2018-02-20T16:12:36.919Z,1456.00
2018-02-20T16:13:36.901Z,1424.00
2018-02-20T16:14:36.887Z,1368.00
2018-02-20T16:15:36.884Z,1288.00
2018-02-20T16:16:36.925Z,1236.00
2018-02-20T16:17:36.850Z,1196.00
2018-02-20T16:18:36.844Z,1184.00
2018-02-20T16:19:36.821Z,1124.00
2018-02-20T16:20:36.815Z,1004.00
2018-02-20T16:21:36.783Z,896.00
2018-02-20T16:22:36.814Z,828.00
2018-02-20T16:23:36.747Z,780.00
2018-02-20T16:24:36.740Z,748.00
2018-02-20T16:25:36.733Z,712.00
2018-02-20T16:26:36.764Z,688.00
2018-02-20T16:27:36.704Z,668.00
2018-02-20T16:28:36.690Z,656.00
2018-02-20T16:29:36.661Z,640.00
2018-02-20T16:30:36.644Z,620.00
2018-02-20T16:31:36.659Z,604.00
2018-02-20T16:32:36.637Z,576.00
2018-02-20T16:33:36.603Z,556.00
2018-02-20T16:34:36.616Z,540.00
2018-02-20T16:35:36.570Z,520.00
2018-02-20T16:36:36.653Z,480.00
2018-02-20T16:37:36.536Z,444.00
2018-02-20T16:38:36.522Z,420.00
2018-02-20T16:39:36.520Z,388.00
2018-02-20T16:40:36.485Z,356.00
2018-02-20T16:41:36.483Z,332.00
2018-02-20T16:42:36.477Z,316.00
2018-02-20T16:43:36.425Z,312.00
2018-02-20T16:44:36.409Z,288.00
2018-02-20T16:45:36.408Z,264.00
2018-02-20T16:46:36.385Z,244.00
2018-02-20T16:47:36.404Z,224.00
2018-02-20T16:48:36.360Z,196.00
2018-02-20T16:49:36.936Z,168.00
2018-02-20T16:50:36.371Z,144.00
2018-02-20T16:51:36.306Z,132.00
2018-02-20T16:52:36.295Z,124.00
2018-02-20T16:53:36.263Z,120.00
2018-02-20T16:54:36.269Z,108.00
2018-02-20T16:55:36.251Z,96.00
2018-02-20T16:56:36.272Z,84.00
2018-02-20T16:57:36.230Z,80.00
2018-02-20T16:58:36.203Z,72.00
2018-02-20T16:59:36.188Z,60.00
2018-02-20T17:00:36.166Z,52.00
2018-02-20T17:01:36.141Z,44.00
2018-02-20T17:02:36.180Z,40.00
2018-02-20T17:03:36.170Z,32.00
2018-02-20T17:04:36.095Z,32.00
2018-02-20T17:05:36.084Z,24.00
2018-02-20T17:06:36.051Z,24.00
2018-02-20T17:07:36.035Z,20.00
2018-02-20T17:08:36.029Z,16.00
2018-02-20T17:09:36.033Z,16.00
2018-02-20T17:10:35.976Z,12.00
2018-02-20T17:11:35.979Z,12.00
2018-02-20T17:12:35.955Z,8.00
2018-02-20T17:13:35.990Z,4.00
2018-02-20T17:14:35.917Z,4.00
2018-02-20T17:15:35.910Z,4.00
2018-02-20T17:16:35.882Z,4.00
2018-02-20T17:17:35.870Z,4.00
2018-02-20T17:18:35.895Z,4.00
2018-02-20T17:19:35.902Z,4.00
2018-02-20T17:20:35.825Z,0.00
2018-02-20T17:21:35.862Z,4.00
2018-02-20T17:22:35.794Z,4.00
2018-02-20T17:23:35.782Z,0.00
2018-02-20T17:24:35.779Z,0.00
2018-02-20T17:25:35.724Z,0.00
2018-02-20T17:26:35.710Z,0.00
2018-02-20T17:27:35.693Z,0.00
2018-02-20T17:28:35.695Z,0.00
2018-02-20T17:29:35.683Z,0.00
2018-02-20T17:30:35.674Z,0.00
2018-02-20T17:31:35.623Z,0.00
2018-02-20T17:32:35.607Z,0.00
2018-02-20T17:33:35.591Z,0.00
2018-02-20T17:34:35.585Z,0.00
2018-02-20T17:35:35.606Z,0.00
2018-02-20T17:36:35.547Z,0.00
2018-02-20T17:37:35.530Z,0.00
2018-02-20T17:38:35.508Z,0.00
2018-02-20T17:39:35.483Z,0.00
2018-02-20T17:40:35.645Z,0.00
2018-02-20T17:41:35.457Z,0.00
2018-02-20T17:42:35.448Z,0.00
2018-02-20T17:43:35.412Z,0.00
2018-02-20T17:44:35.418Z,0.00
2018-02-20T17:45:35.395Z,0.00
2018-02-20T17:46:35.432Z,0.00
2018-02-20T17:47:35.354Z,0.00
2018-02-20T17:48:35.461Z,0.00
2018-02-20T17:49:35.313Z,0.00
2018-02-20T17:50:35.309Z,0.00
2018-02-20T17:51:35.287Z,0.00
2018-02-20T17:52:35.291Z,0.00
2018-02-20T17:53:35.242Z,0.00
2018-02-20T17:54:35.221Z,0.00
2018-02-20T17:55:35.220Z,0.00
2018-02-20T17:56:35.184Z,0.00
2018-02-20T17:57:35.191Z,0.00
2018-02-20T17:58:35.152Z,0.00
2018-02-20T17:59:35.143Z,0.00
2018-02-20T18:00:35.116Z,0.00
2018-02-20T18:01:35.113Z,0.00